Messwerte Greytown

Temperatur

Temperatur
°C
1575763200 2.00 2.00 17
1575766800 3.00 3.00 17
1575770400 4.00 4.00 17
1575774000 5.00 5.00
1575777600 6.00 6.00 18
1575781200 7.00 7.00 19
1575784800 8.00 8.00 22
1575788400 9.00 9.00 21
1575792000 10.00 10.00 23
1575795600 11.00 11.00 25
1575799200 12.00 12.00 23
1575802800 13.00 13.00
1575806400 14.00 14.00 17
1575810000 15.00 15.00 17
1575813600 16.00 16.00 16
1575817200 17.00 17.00 16
1575820800 18.00 18.00 16
1575824400 19.00 19.00
1575828000 20.00 20.00 14
1575831600 21.00 21.00 14
1575835200 22.00 22.00 14
1575838800 23.00 23.00 14
1575842400 0.00 0.00 13
1575846000 1.00 1.00 13

Aktuellste Messwerte

Temperatur
13 °C
Feuchtigkeit
100 %
Wind
5 km/hWindrichtung: Südost
Luftdruck
1017 hPa
Messzeit: 9. Dezember 2019, 1.00Datenquelle: METAR

Weitere Messstationen in der Nähe

Messstation Temperatur Entfernung
La Mercy 19 °C 77 km
Ladysmith 14 °C 104 km
Ulundi 16 °C 113 km
Richard's Bay 21 °C 148 km
Bethlehem 14 °C 240 km
Mbazwana 20 °C 263 km
Ermelo - 293 km

Wind

Windrichtung Böen Mittelwind
° km/h km/h
1575763200 2.00 1.00 - 2.00 170° 5
1575766800 3.00 2.00 - 3.00 140° 5
1575770400 4.00 3.00 - 4.00 180° 5
1575774000 5.00 4.00 - 5.00
1575777600 6.00 5.00 - 6.00 240° 5
1575781200 7.00 6.00 - 7.00 170° 5
1575784800 8.00 7.00 - 8.00 150° 5
1575788400 9.00 8.00 - 9.00 150° 10
1575792000 10.00 9.00 - 10.00 160° 10
1575795600 11.00 10.00 - 11.00 140° 10
1575799200 12.00 11.00 - 12.00 150° 15
1575802800 13.00 12.00 - 13.00
1575806400 14.00 13.00 - 14.00 150° 15
1575810000 15.00 14.00 - 15.00 150° 10
1575813600 16.00 15.00 - 16.00 150° 5
1575817200 17.00 16.00 - 17.00 150° 10
1575820800 18.00 17.00 - 18.00 150° 5
1575824400 19.00 18.00 - 19.00
1575828000 20.00 19.00 - 20.00 150° 5
1575831600 21.00 20.00 - 21.00 170° 5
1575835200 22.00 21.00 - 22.00 140° 5
1575838800 23.00 22.00 - 23.00 140° 5
1575842400 0.00 23.00 - 0.00 120° 5
1575846000 1.00 0.00 - 1.00 150° 5

Ihre Wetterstation

Fehlt Ihre Wetterstation auf unserem Portal?

Schreiben Sie an network@meteonews.ch

Klima

Wann ist es am wärmsten? Wann regnet es am wenigsten? Unsere Klimadaten geben Auskunft.